createdAt,value
2019-04-30T00:00:06.168Z,1.67
2019-04-30T00:02:40.115Z,1.40
2019-04-30T00:05:10.059Z,1.30
2019-04-30T00:07:40.111Z,2.00
2019-04-30T00:10:09.285Z,1.50
2019-04-30T00:12:39.664Z,1.70
2019-04-30T00:15:11.046Z,1.70
2019-04-30T00:17:39.780Z,1.57
2019-04-30T00:20:08.851Z,1.60
2019-04-30T00:22:39.298Z,1.50
2019-04-30T00:25:08.720Z,1.43
2019-04-30T00:27:37.813Z,1.20
2019-04-30T00:30:08.942Z,1.30
2019-04-30T00:32:43.402Z,1.70
2019-04-30T00:35:11.915Z,1.80
2019-04-30T00:37:39.792Z,1.97
2019-04-30T00:40:08.955Z,1.60
2019-04-30T00:42:38.049Z,1.67
2019-04-30T00:45:09.897Z,1.50
2019-04-30T00:47:43.518Z,1.70
2019-04-30T00:50:11.223Z,1.40
2019-04-30T00:52:40.330Z,1.50
2019-04-30T00:55:09.594Z,1.60
2019-04-30T00:57:43.662Z,1.93
2019-04-30T01:00:12.362Z,1.50
2019-04-30T01:03:05.873Z,1.40
2019-04-30T01:05:39.634Z,1.50
2019-04-30T01:08:07.085Z,1.60
2019-04-30T01:10:36.929Z,1.60
2019-04-30T01:13:08.202Z,1.63
2019-04-30T01:15:38.965Z,1.80
2019-04-30T01:18:09.241Z,1.60
2019-04-30T01:20:38.627Z,2.30
2019-04-30T01:23:11.272Z,1.40
2019-04-30T01:25:43.197Z,1.77
2019-04-30T01:28:11.567Z,1.63
2019-04-30T01:30:42.318Z,1.83
2019-04-30T01:33:11.478Z,1.80
2019-04-30T01:35:40.681Z,1.80
2019-04-30T01:38:12.688Z,1.60
2019-04-30T01:40:47.310Z,1.90
2019-04-30T01:43:13.677Z,1.43
2019-04-30T01:45:42.742Z,1.50
2019-04-30T01:48:12.802Z,1.50
2019-04-30T01:50:42.280Z,1.50
2019-04-30T01:53:13.124Z,1.60
2019-04-30T01:56:09.561Z,1.93
2019-04-30T01:58:59.971Z,1.70
2019-04-30T02:01:31.203Z,2.10
2019-04-30T02:04:00.489Z,1.93
2019-04-30T02:06:29.565Z,1.73
2019-04-30T02:08:59.338Z,1.70
2019-04-30T02:11:28.893Z,1.80
2019-04-30T02:13:59.136Z,1.70
2019-04-30T02:16:28.939Z,1.80
2019-04-30T02:18:59.682Z,2.17
2019-04-30T02:21:30.344Z,2.30
2019-04-30T02:23:59.565Z,1.90
2019-04-30T02:26:28.744Z,1.97
2019-04-30T02:28:59.420Z,1.57
2019-04-30T02:31:31.015Z,1.90
2019-04-30T02:34:10.249Z,1.60
2019-04-30T02:36:51.746Z,1.50
2019-04-30T02:39:20.870Z,1.53
2019-04-30T02:41:50.697Z,1.60
2019-04-30T02:44:20.755Z,1.53
2019-04-30T02:46:50.729Z,1.60
2019-04-30T02:49:21.237Z,1.90
2019-04-30T02:51:51.403Z,1.50
2019-04-30T02:54:29.662Z,1.63
2019-04-30T02:57:23.861Z,1.60
2019-04-30T03:00:13.197Z,1.70
2019-04-30T03:02:42.298Z,1.50
2019-04-30T03:05:13.660Z,2.07
2019-04-30T03:07:42.282Z,1.93
2019-04-30T03:10:11.781Z,1.77
2019-04-30T03:12:40.923Z,1.50
2019-04-30T03:15:10.276Z,2.07
2019-04-30T03:18:00.679Z,1.50
2019-04-30T03:20:36.348Z,1.50
2019-04-30T03:23:05.840Z,1.40
2019-04-30T03:25:34.846Z,1.57
2019-04-30T03:28:03.917Z,1.57
2019-04-30T03:30:33.027Z,1.47
2019-04-30T03:33:03.054Z,1.40
2019-04-30T03:35:32.856Z,1.40
2019-04-30T03:38:01.983Z,1.50
2019-04-30T03:40:31.061Z,1.87
2019-04-30T03:43:03.191Z,1.40
2019-04-30T03:45:30.939Z,1.50
2019-04-30T03:48:00.419Z,1.50
2019-04-30T03:50:48.215Z,1.43
2019-04-30T03:53:00.738Z,1.83
2019-04-30T03:55:30.075Z,1.67
2019-04-30T03:58:00.147Z,1.50
2019-04-30T04:00:42.141Z,1.30
2019-04-30T04:03:10.081Z,1.50
2019-04-30T04:05:53.625Z,1.57
2019-04-30T04:08:29.358Z,1.50
2019-04-30T04:11:20.080Z,2.63
2019-04-30T04:13:49.594Z,1.40
2019-04-30T04:16:19.484Z,1.47
2019-04-30T04:18:50.148Z,1.70
2019-04-30T04:21:20.577Z,1.50
2019-04-30T04:23:49.820Z,1.70
2019-04-30T04:26:20.283Z,1.90
2019-04-30T04:28:49.856Z,2.00
2019-04-30T04:31:19.551Z,1.87
2019-04-30T04:33:52.247Z,1.70
2019-04-30T04:36:20.114Z,1.50
2019-04-30T04:38:50.648Z,1.37
2019-04-30T04:41:20.132Z,1.80
2019-04-30T04:43:50.398Z,1.43
2019-04-30T04:46:20.588Z,1.90
2019-04-30T04:48:49.974Z,1.80
2019-04-30T04:51:31.300Z,1.97
2019-04-30T04:53:50.202Z,1.90
2019-04-30T04:56:19.409Z,1.67
2019-04-30T04:58:50.261Z,1.83
2019-04-30T05:01:20.408Z,1.87
2019-04-30T05:03:49.650Z,2.47
2019-04-30T05:06:21.816Z,3.47
2019-04-30T05:08:49.554Z,2.90
2019-04-30T05:11:19.238Z,2.43
2019-04-30T05:13:49.044Z,2.20
2019-04-30T05:16:19.043Z,1.93
2019-04-30T05:18:48.796Z,1.93
2019-04-30T05:21:18.803Z,2.97
2019-04-30T05:23:49.278Z,3.20
2019-04-30T05:26:19.081Z,2.90
2019-04-30T05:28:51.123Z,3.83
2019-04-30T05:31:21.086Z,2.83
2019-04-30T05:33:50.460Z,4.20
2019-04-30T05:36:20.127Z,3.20
2019-04-30T05:38:49.210Z,3.20
2019-04-30T05:41:19.301Z,3.17
2019-04-30T05:43:48.986Z,2.70
2019-04-30T05:46:19.598Z,4.10
2019-04-30T05:48:49.510Z,3.03
2019-04-30T05:51:21.054Z,2.40
2019-04-30T05:53:49.482Z,2.20
2019-04-30T05:56:19.330Z,2.63
2019-04-30T05:58:49.422Z,2.70
2019-04-30T06:01:19.629Z,4.13
2019-04-30T06:03:49.063Z,2.40
2019-04-30T06:06:19.299Z,2.60
2019-04-30T06:09:13.049Z,2.10
2019-04-30T06:12:11.483Z,3.07
2019-04-30T06:14:51.851Z,3.23
2019-04-30T06:17:21.306Z,2.77
2019-04-30T06:19:51.471Z,4.40
2019-04-30T06:22:20.752Z,2.80
2019-04-30T06:24:49.824Z,3.40
2019-04-30T06:27:19.360Z,3.70
2019-04-30T06:29:48.951Z,2.33
2019-04-30T06:32:18.738Z,2.70
2019-04-30T06:34:49.845Z,2.37
2019-04-30T06:37:19.557Z,3.30
2019-04-30T06:39:50.027Z,4.03
2019-04-30T06:42:19.606Z,2.73
2019-04-30T06:44:49.610Z,2.50
2019-04-30T06:47:26.610Z,2.37
2019-04-30T06:49:49.682Z,2.17
2019-04-30T06:52:23.253Z,3.20
2019-04-30T06:54:49.989Z,2.20
2019-04-30T06:57:19.923Z,3.40
2019-04-30T06:59:51.212Z,3.43
2019-04-30T07:02:19.996Z,2.00
2019-04-30T07:04:49.403Z,2.17
2019-04-30T07:07:23.084Z,2.60
2019-04-30T07:10:21.358Z,2.93
2019-04-30T07:12:58.847Z,2.20
2019-04-30T07:15:29.517Z,2.13
2019-04-30T07:17:59.140Z,2.00
2019-04-30T07:20:29.137Z,2.63
2019-04-30T07:23:02.810Z,2.40
2019-04-30T07:25:29.377Z,2.27
2019-04-30T07:27:59.788Z,2.40
2019-04-30T07:30:30.865Z,2.00
2019-04-30T07:32:59.856Z,2.30
2019-04-30T07:35:29.320Z,2.80
2019-04-30T07:38:00.616Z,2.63
2019-04-30T07:40:29.562Z,2.33
2019-04-30T07:42:59.674Z,2.10
2019-04-30T07:45:31.603Z,2.20
2019-04-30T07:47:59.583Z,2.50
2019-04-30T07:50:31.351Z,2.60
2019-04-30T07:53:05.507Z,2.90
2019-04-30T07:55:30.284Z,2.53
2019-04-30T07:57:59.513Z,3.00
2019-04-30T08:00:30.984Z,2.33
2019-04-30T08:03:06.346Z,1.87
2019-04-30T08:05:40.314Z,2.50
2019-04-30T08:08:21.234Z,2.00
2019-04-30T08:10:40.208Z,3.40
2019-04-30T08:13:14.098Z,2.90
2019-04-30T08:15:42.101Z,3.23
2019-04-30T08:18:10.871Z,2.80
2019-04-30T08:20:39.975Z,2.80
2019-04-30T08:23:17.343Z,2.67
2019-04-30T08:25:39.877Z,2.60
2019-04-30T08:28:09.175Z,2.87
2019-04-30T08:30:39.171Z,2.17
2019-04-30T08:33:09.485Z,2.30
2019-04-30T08:35:39.792Z,2.93
2019-04-30T08:38:10.757Z,2.67
2019-04-30T08:40:52.848Z,2.13
2019-04-30T08:43:10.710Z,2.57
2019-04-30T08:45:39.808Z,2.40
2019-04-30T08:48:09.140Z,2.20
2019-04-30T08:50:39.428Z,1.90
2019-04-30T08:53:10.962Z,2.60
2019-04-30T08:55:39.731Z,2.40
2019-04-30T08:58:14.530Z,1.90
2019-04-30T09:00:39.689Z,1.90
2019-04-30T09:03:09.343Z,2.47
2019-04-30T09:05:56.576Z,2.40
2019-04-30T09:08:25.665Z,2.10
2019-04-30T09:10:54.682Z,1.93
2019-04-30T09:13:23.954Z,2.37
2019-04-30T09:15:52.955Z,2.00
2019-04-30T09:18:22.205Z,2.17
2019-04-30T09:20:51.899Z,2.13
2019-04-30T09:23:20.981Z,1.90
2019-04-30T09:25:50.082Z,2.20
2019-04-30T09:28:19.850Z,1.90
2019-04-30T09:30:49.173Z,1.97
2019-04-30T09:33:19.420Z,2.07
2019-04-30T09:35:49.506Z,2.10
2019-04-30T09:38:19.500Z,1.83
2019-04-30T09:40:50.593Z,2.10
2019-04-30T09:43:19.540Z,2.00
2019-04-30T09:45:49.728Z,2.67
2019-04-30T09:48:19.210Z,2.43
2019-04-30T09:50:49.551Z,2.83
2019-04-30T09:53:19.850Z,2.20
2019-04-30T09:55:49.746Z,2.60
2019-04-30T09:58:21.032Z,2.30
2019-04-30T10:00:50.367Z,2.40
2019-04-30T10:03:20.884Z,2.53
2019-04-30T10:05:50.400Z,1.90
2019-04-30T10:08:20.949Z,2.30
2019-04-30T10:11:15.322Z,2.27
2019-04-30T10:13:44.395Z,2.30
2019-04-30T10:16:23.065Z,2.40
2019-04-30T10:18:52.236Z,2.10
2019-04-30T10:21:21.331Z,2.40
2019-04-30T10:24:10.216Z,2.80
2019-04-30T10:26:26.855Z,2.43
2019-04-30T10:28:56.143Z,2.60
2019-04-30T10:31:25.295Z,2.60
2019-04-30T10:33:54.367Z,2.90
2019-04-30T10:36:23.605Z,2.50
2019-04-30T10:38:52.689Z,3.07
2019-04-30T10:41:21.761Z,3.03
2019-04-30T10:43:50.850Z,2.70
2019-04-30T10:46:19.929Z,2.30
2019-04-30T10:48:49.020Z,3.03
2019-04-30T10:51:18.901Z,3.07
2019-04-30T10:53:48.603Z,3.70
2019-04-30T10:56:19.331Z,2.53
2019-04-30T10:58:48.513Z,2.83
2019-04-30T11:01:19.270Z,2.60
2019-04-30T11:03:48.560Z,3.47
2019-04-30T11:06:19.217Z,2.90
2019-04-30T11:08:48.408Z,3.30
2019-04-30T11:11:17.492Z,3.13
2019-04-30T11:13:46.568Z,3.03
2019-04-30T11:16:15.796Z,2.47
2019-04-30T11:18:45.158Z,3.23
2019-04-30T11:21:14.617Z,2.97
2019-04-30T11:23:44.073Z,2.40
2019-04-30T11:26:13.980Z,1.90
2019-04-30T11:28:43.587Z,3.00
2019-04-30T11:31:30.689Z,3.03
2019-04-30T11:34:01.376Z,2.27
2019-04-30T11:36:30.434Z,2.90
2019-04-30T11:38:59.519Z,3.27
2019-04-30T11:41:32.882Z,2.83
2019-04-30T11:43:59.566Z,2.47
2019-04-30T11:46:54.742Z,3.23
2019-04-30T11:49:23.915Z,2.60
2019-04-30T11:51:52.978Z,2.90
2019-04-30T11:54:22.079Z,3.10
2019-04-30T11:56:51.147Z,3.07
2019-04-30T11:59:20.236Z,3.73
2019-04-30T12:01:51.525Z,2.83
2019-04-30T12:04:20.619Z,2.50
2019-04-30T12:06:50.265Z,2.37
2019-04-30T12:09:50.495Z,2.57
2019-04-30T12:12:19.570Z,3.00
2019-04-30T12:14:49.424Z,3.20
2019-04-30T12:17:18.531Z,3.87
2019-04-30T12:19:48.876Z,3.20
2019-04-30T12:22:20.027Z,3.57
2019-04-30T12:25:01.492Z,3.20
2019-04-30T12:27:19.793Z,3.50
2019-04-30T12:29:49.531Z,4.00
2019-04-30T12:32:19.193Z,3.10
2019-04-30T12:34:49.610Z,3.40
2019-04-30T12:37:19.110Z,3.23
2019-04-30T12:39:49.489Z,3.20
2019-04-30T12:42:18.934Z,2.70
2019-04-30T12:44:49.562Z,2.90
2019-04-30T12:47:21.743Z,4.27
2019-04-30T12:50:00.900Z,4.03
2019-04-30T12:53:09.283Z,2.97
2019-04-30T12:56:34.478Z,2.93
2019-04-30T12:59:03.957Z,2.97
2019-04-30T13:01:34.215Z,3.80
2019-04-30T13:04:03.517Z,3.33
2019-04-30T13:06:33.240Z,3.23
2019-04-30T13:09:03.257Z,3.90
2019-04-30T13:11:33.247Z,3.40
2019-04-30T13:14:03.074Z,4.20
2019-04-30T13:16:32.518Z,3.67
2019-04-30T13:19:01.575Z,3.13
2019-04-30T13:21:30.669Z,4.17
2019-04-30T13:23:59.722Z,4.63
2019-04-30T13:26:28.814Z,4.40
2019-04-30T13:29:02.353Z,3.70
2019-04-30T13:31:31.447Z,3.80
2019-04-30T13:34:18.687Z,4.20
2019-04-30T13:36:49.349Z,3.20
2019-04-30T13:39:26.886Z,3.57
2019-04-30T13:42:14.567Z,4.90
2019-04-30T13:44:36.560Z,4.10
2019-04-30T13:47:05.643Z,3.60
2019-04-30T13:49:34.706Z,3.33
2019-04-30T13:52:04.086Z,2.93
2019-04-30T13:54:33.076Z,3.10
2019-04-30T13:57:02.164Z,2.47
2019-04-30T13:59:31.324Z,2.80
2019-04-30T14:02:00.402Z,2.23
2019-04-30T14:04:45.397Z,2.27
2019-04-30T14:07:51.649Z,2.90
2019-04-30T14:10:20.831Z,2.83
2019-04-30T14:12:56.684Z,2.83
2019-04-30T14:15:25.770Z,2.33
2019-04-30T14:17:54.869Z,2.40
2019-04-30T14:20:23.937Z,3.60
2019-04-30T14:22:53.022Z,2.90
2019-04-30T14:25:22.100Z,2.67
2019-04-30T14:27:54.511Z,2.30
2019-04-30T14:30:22.263Z,2.00
2019-04-30T14:32:51.385Z,2.23
2019-04-30T14:35:20.445Z,2.33
2019-04-30T14:37:49.780Z,2.40
2019-04-30T14:40:20.450Z,3.27
2019-04-30T14:42:56.500Z,2.57
2019-04-30T14:45:31.460Z,2.63
2019-04-30T14:48:07.414Z,2.80
2019-04-30T14:50:38.575Z,2.67
2019-04-30T14:53:30.519Z,2.33
2019-04-30T14:56:24.604Z,2.20
2019-04-30T14:59:25.404Z,2.40
2019-04-30T15:02:11.597Z,1.80
2019-04-30T15:04:40.668Z,2.30
2019-04-30T15:07:09.777Z,2.10
2019-04-30T15:09:38.827Z,2.40
2019-04-30T15:12:09.690Z,2.30
2019-04-30T15:14:40.920Z,3.30
2019-04-30T15:17:09.706Z,2.10
2019-04-30T15:19:38.783Z,2.40
2019-04-30T15:22:09.135Z,1.80
2019-04-30T15:25:34.640Z,2.30
2019-04-30T15:28:03.903Z,2.37
2019-04-30T15:30:32.969Z,3.13
2019-04-30T15:33:09.496Z,2.70
2019-04-30T15:35:38.565Z,2.30
2019-04-30T15:38:09.392Z,2.80
2019-04-30T15:40:38.833Z,3.10
2019-04-30T15:43:07.986Z,2.40
2019-04-30T15:45:39.058Z,2.23
2019-04-30T15:48:08.550Z,2.27
2019-04-30T15:50:39.244Z,1.97
2019-04-30T15:53:09.455Z,1.93
2019-04-30T15:55:38.730Z,1.90
2019-04-30T15:58:14.677Z,2.10
2019-04-30T16:00:43.757Z,2.70
2019-04-30T16:03:18.706Z,2.50
2019-04-30T16:05:49.502Z,2.40
2019-04-30T16:08:42.420Z,3.33
2019-04-30T16:11:45.630Z,2.40
2019-04-30T16:14:22.715Z,3.10
2019-04-30T16:17:08.280Z,2.30
2019-04-30T16:19:37.374Z,2.93
2019-04-30T16:22:06.858Z,2.73
2019-04-30T16:24:35.943Z,2.47
2019-04-30T16:27:05.426Z,2.63
2019-04-30T16:29:34.516Z,3.30
2019-04-30T16:32:03.611Z,2.53
2019-04-30T16:34:32.700Z,3.10
2019-04-30T16:37:01.758Z,2.60
2019-04-30T16:39:30.875Z,2.77
2019-04-30T16:41:59.969Z,2.10
2019-04-30T16:44:29.119Z,2.10
2019-04-30T16:46:59.643Z,2.90
2019-04-30T16:49:29.759Z,2.43
2019-04-30T16:52:01.467Z,2.60
2019-04-30T16:54:29.646Z,1.87
2019-04-30T16:57:04.136Z,1.90
2019-04-30T16:59:54.835Z,2.20
2019-04-30T17:02:25.722Z,2.10
2019-04-30T17:05:08.845Z,2.13
2019-04-30T17:08:03.928Z,2.03
2019-04-30T17:10:54.774Z,2.07
2019-04-30T17:13:29.400Z,1.63
2019-04-30T17:16:04.727Z,1.67
2019-04-30T17:18:33.718Z,1.80
2019-04-30T17:21:02.813Z,1.73
2019-04-30T17:23:31.904Z,2.50
2019-04-30T17:26:01.003Z,1.53
2019-04-30T17:28:30.063Z,2.00
2019-04-30T17:30:59.166Z,1.60
2019-04-30T17:33:28.240Z,1.93
2019-04-30T17:35:57.334Z,1.40
2019-04-30T17:38:26.400Z,1.40
2019-04-30T17:40:55.506Z,1.50
2019-04-30T17:43:24.638Z,1.47
2019-04-30T17:45:53.746Z,1.20
2019-04-30T17:48:22.806Z,1.50
2019-04-30T17:50:51.819Z,1.20
2019-04-30T17:53:20.881Z,1.27
2019-04-30T17:55:49.999Z,1.10
2019-04-30T17:58:20.599Z,1.13
2019-04-30T18:00:53.580Z,1.00
2019-04-30T18:03:22.648Z,1.20
2019-04-30T18:05:51.735Z,1.10
2019-04-30T18:08:21.319Z,1.30
2019-04-30T18:10:50.514Z,1.10
2019-04-30T18:13:19.578Z,1.33
2019-04-30T18:15:48.676Z,1.10
2019-04-30T18:18:29.314Z,1.20
2019-04-30T18:21:15.316Z,1.30
2019-04-30T18:24:01.998Z,1.10
2019-04-30T18:26:31.577Z,1.27
2019-04-30T18:29:00.654Z,1.23
2019-04-30T18:31:29.924Z,1.00
2019-04-30T18:33:59.352Z,1.10
2019-04-30T18:36:29.408Z,1.10
2019-04-30T18:38:59.072Z,1.40
2019-04-30T18:41:28.150Z,1.40
2019-04-30T18:44:09.476Z,1.30
2019-04-30T18:46:39.126Z,1.20
2019-04-30T18:49:10.281Z,1.50
2019-04-30T18:51:42.162Z,1.60
2019-04-30T18:54:09.898Z,1.93
2019-04-30T18:56:39.621Z,1.80
2019-04-30T18:59:08.889Z,1.80
2019-04-30T19:01:38.043Z,1.60
2019-04-30T19:04:09.229Z,1.60
2019-04-30T19:06:37.934Z,1.60
2019-04-30T19:09:40.103Z,1.80
2019-04-30T19:12:29.050Z,1.50
2019-04-30T19:15:15.568Z,1.63
2019-04-30T19:18:18.814Z,1.60
2019-04-30T19:20:50.508Z,1.63
2019-04-30T19:23:19.579Z,1.57
2019-04-30T19:25:48.688Z,2.30
2019-04-30T19:28:18.872Z,2.77
2019-04-30T19:30:55.852Z,2.67
2019-04-30T19:33:18.916Z,2.47
2019-04-30T19:35:50.418Z,2.07
2019-04-30T19:38:18.790Z,2.03
2019-04-30T19:40:49.380Z,2.43
2019-04-30T19:43:18.489Z,2.30
2019-04-30T19:45:49.080Z,2.10
2019-04-30T19:48:18.364Z,2.50
2019-04-30T19:50:48.848Z,2.67
2019-04-30T19:53:21.811Z,1.80
2019-04-30T19:55:49.296Z,2.17
2019-04-30T19:58:26.168Z,2.00
2019-04-30T20:00:49.864Z,2.30
2019-04-30T20:03:19.812Z,2.00
2019-04-30T20:05:49.049Z,2.30
2019-04-30T20:08:19.882Z,2.10
2019-04-30T20:10:49.619Z,2.00
2019-04-30T20:13:31.148Z,2.20
2019-04-30T20:15:49.726Z,2.10
2019-04-30T20:18:19.166Z,2.30
2019-04-30T20:20:51.929Z,2.27
2019-04-30T20:23:20.896Z,2.13
2019-04-30T20:25:49.969Z,2.10
2019-04-30T20:28:18.990Z,2.20
2019-04-30T20:30:48.994Z,3.13
2019-04-30T20:33:19.023Z,2.70
2019-04-30T20:35:48.965Z,2.70
2019-04-30T20:38:52.421Z,2.70
2019-04-30T20:41:21.485Z,2.40
2019-04-30T20:43:50.580Z,2.30
2019-04-30T20:46:32.112Z,2.43
2019-04-30T20:48:50.378Z,2.47
2019-04-30T20:51:19.715Z,2.40
2019-04-30T20:53:49.195Z,2.30
2019-04-30T20:56:19.123Z,2.10
2019-04-30T20:58:57.209Z,2.10
2019-04-30T21:01:19.416Z,2.03
2019-04-30T21:03:48.653Z,2.10
2019-04-30T21:06:19.635Z,2.33
2019-04-30T21:08:48.521Z,2.20
2019-04-30T21:11:19.326Z,2.23
2019-04-30T21:13:49.113Z,2.30
2019-04-30T21:16:18.315Z,2.53
2019-04-30T21:18:47.408Z,2.60
2019-04-30T21:21:16.547Z,3.13
2019-04-30T21:23:49.172Z,2.97
2019-04-30T21:26:19.625Z,3.13
2019-04-30T21:28:49.408Z,2.57
2019-04-30T21:31:56.040Z,2.20
2019-04-30T21:34:33.066Z,2.37
2019-04-30T21:37:02.218Z,1.93
2019-04-30T21:39:31.226Z,2.00
2019-04-30T21:42:00.300Z,2.30
2019-04-30T21:44:29.395Z,2.40
2019-04-30T21:46:58.400Z,2.63
2019-04-30T21:49:27.487Z,2.33
2019-04-30T21:51:56.550Z,2.40
2019-04-30T21:54:25.575Z,2.60
2019-04-30T21:56:54.640Z,2.43
2019-04-30T21:59:24.797Z,2.20
2019-04-30T22:01:54.078Z,2.43
2019-04-30T22:04:23.091Z,1.90
2019-04-30T22:06:52.173Z,1.83
2019-04-30T22:09:21.438Z,1.70
2019-04-30T22:11:50.509Z,2.20
2019-04-30T22:14:19.599Z,2.10
2019-04-30T22:16:49.415Z,2.03
2019-04-30T22:19:18.641Z,2.07
2019-04-30T22:21:49.520Z,3.00
2019-04-30T22:24:18.533Z,2.57
2019-04-30T22:26:47.620Z,2.83
2019-04-30T22:29:16.642Z,2.63
2019-04-30T22:31:45.748Z,2.20
2019-04-30T22:34:14.825Z,2.60
2019-04-30T22:36:48.848Z,2.90
2019-04-30T22:39:31.778Z,2.50
2019-04-30T22:42:30.819Z,2.70
2019-04-30T22:45:00.996Z,3.17
2019-04-30T22:47:30.077Z,3.00
2019-04-30T22:49:59.165Z,3.60
2019-04-30T22:52:28.232Z,5.33
2019-04-30T22:54:57.238Z,3.83
2019-04-30T22:57:26.307Z,3.40
2019-04-30T22:59:55.399Z,4.53
2019-04-30T23:02:43.459Z,4.40
2019-04-30T23:05:14.964Z,4.10
2019-04-30T23:07:44.041Z,3.97
2019-04-30T23:10:13.167Z,6.10
2019-04-30T23:12:42.222Z,6.87
2019-04-30T23:15:11.487Z,7.77
2019-04-30T23:17:40.572Z,7.40
2019-04-30T23:20:09.636Z,6.40
2019-04-30T23:22:38.722Z,4.70
2019-04-30T23:25:08.027Z,4.23
2019-04-30T23:27:37.109Z,4.63
2019-04-30T23:30:07.245Z,3.90
2019-04-30T23:32:36.363Z,5.10
2019-04-30T23:35:05.546Z,6.40
2019-04-30T23:37:34.630Z,9.37
2019-04-30T23:40:23.071Z,11.80
2019-04-30T23:42:52.530Z,11.93
2019-04-30T23:45:21.744Z,6.77
2019-04-30T23:47:50.833Z,7.67
2019-04-30T23:50:19.894Z,5.80
2019-04-30T23:52:48.991Z,5.97
2019-04-30T23:55:18.062Z,6.60
2019-04-30T23:57:47.153Z,9.97
